map of UGO home
UGO - Airport
Location
City:  Uíge, Uíge, Angola
ICAO:FNUG
IATA:UGO

Details
Type:Airport (Aerodrome, Airfield)
Latitude:7°36'11"S (-7.603066)
Longitude:15°01'40"E (15.027822)
Datum:WGS 1984
Elevation:2720 ft (829 m)
Variation:2.18°W (WMM2015v2 magnetic declination)
0.16° annual change
Runways:1
Longest:6562 × 55 ft (2000 × 17 m), paved

Time
Time Zone:UTC+1
Local Time:

Weather
METAR:FNUG 041300Z 21006KT 9999 FEW017 BKN080 27/22 Q1012

Related Locations
Nearby:
Farthest:PLPA: 12212 mi / 19654 km
Palmyra Island Atoll [Palmyra Airport (Cooper)], UM

Find:

   beyond  
but within

Other Information
Maps:
NOTAMs:
Links:
Sources:

  
  • flag of Angola
  

Sectional Chart

Flight Planning
at skyvector.com

Satellite Image

Google Maps Satellite view

 

Copyright © 2004-2019 Karl L. Swartz. All rights reserved.
The Great Circle Mapper name and logo are trademarks of the Great Circle Mapper.
All other trademarks mentioned herein belong to their respective owners.
Please see credits for attibutions and further copyright information.

  Follow gcmap on Facebook Follow gcmap on Twitter GCmap on LinkedIn

hCard Microformat

Geo Microformat